createdAt,value
2022-11-29T00:01:28.301Z,18.30
2022-11-29T00:11:54.590Z,13.00
2022-11-29T00:21:56.958Z,9.18
2022-11-29T00:31:59.951Z,13.70
2022-11-29T00:42:02.231Z,11.18
2022-11-29T00:52:04.736Z,14.00
2022-11-29T01:02:07.057Z,9.48
2022-11-29T01:12:09.359Z,8.70
2022-11-29T01:22:13.723Z,9.85
2022-11-29T01:32:15.894Z,10.15
2022-11-29T01:42:18.126Z,10.10
2022-11-29T01:52:27.665Z,12.35
2022-11-29T02:02:43.502Z,11.00
2022-11-29T02:13:03.888Z,10.23
2022-11-29T02:23:39.581Z,8.05
2022-11-29T02:34:11.041Z,6.75
2022-11-29T02:44:35.041Z,5.65
2022-11-29T02:54:47.936Z,7.35
2022-11-29T03:05:12.709Z,8.57
2022-11-29T03:15:33.121Z,7.63
2022-11-29T03:25:53.700Z,8.27
2022-11-29T03:36:16.427Z,6.95
2022-11-29T03:46:44.104Z,8.13
2022-11-29T03:56:46.636Z,7.70
2022-11-29T04:07:01.785Z,8.00
2022-11-29T04:17:51.523Z,9.27
2022-11-29T04:28:17.752Z,10.00
2022-11-29T04:38:47.171Z,8.55
2022-11-29T04:49:01.328Z,7.53
2022-11-29T04:59:12.979Z,6.28
2022-11-29T05:09:36.647Z,6.88
2022-11-29T05:19:46.782Z,7.45
2022-11-29T05:30:04.533Z,7.88
2022-11-29T05:40:28.174Z,7.50
2022-11-29T05:50:54.564Z,7.53
2022-11-29T06:01:35.088Z,8.40
2022-11-29T06:11:50.724Z,10.55
2022-11-29T06:22:26.712Z,12.02
2022-11-29T06:32:54.486Z,13.52
2022-11-29T06:42:56.690Z,13.10
2022-11-29T06:53:07.658Z,15.23
2022-11-29T07:03:31.140Z,11.98
2022-11-29T07:13:33.529Z,9.82
2022-11-29T07:24:24.417Z,8.02
2022-11-29T07:34:58.442Z,8.63
2022-11-29T07:45:29.756Z,11.98
2022-11-29T07:55:34.512Z,17.60
2022-11-29T08:05:38.406Z,30.73
2022-11-29T08:15:45.606Z,28.75
2022-11-29T08:25:48.634Z,27.77
2022-11-29T08:35:50.838Z,34.55
2022-11-29T08:45:53.417Z,32.67
2022-11-29T08:55:59.476Z,28.35
2022-11-29T09:06:13.010Z,27.63
2022-11-29T09:16:20.819Z,27.30
2022-11-29T09:26:23.152Z,24.07
2022-11-29T09:36:28.749Z,27.15
2022-11-29T09:46:58.539Z,30.38
2022-11-29T09:57:10.169Z,21.92
2022-11-29T10:07:24.500Z,20.67
2022-11-29T10:17:43.500Z,17.15
2022-11-29T10:27:45.963Z,31.98
2022-11-29T10:38:28.624Z,21.13
2022-11-29T10:48:17.866Z,21.95
2022-11-29T10:58:28.412Z,25.65
2022-11-29T11:08:32.616Z,19.38
2022-11-29T11:18:35.391Z,48.50
2022-11-29T11:29:01.935Z,59.70
2022-11-29T11:39:13.510Z,16.77
2022-11-29T11:49:29.927Z,16.58
2022-11-29T11:59:32.191Z,15.15
2022-11-29T12:09:40.670Z,18.15
2022-11-29T12:29:53.067Z,30.95
2022-11-29T12:40:05.381Z,42.17
2022-11-29T12:50:40.355Z,18.15
2022-11-29T13:00:56.394Z,42.20
2022-11-29T13:11:14.626Z,24.13
2022-11-29T13:21:22.639Z,16.90
2022-11-29T13:31:25.845Z,49.60
2022-11-29T13:41:28.162Z,42.45
2022-11-29T13:51:35.552Z,26.35
2022-11-29T14:01:47.081Z,31.47
2022-11-29T14:12:19.758Z,30.55
2022-11-29T14:22:22.452Z,44.67
2022-11-29T14:32:45.992Z,29.98
2022-11-29T14:42:50.229Z,22.55
2022-11-29T14:52:52.756Z,22.05
2022-11-29T15:03:21.361Z,25.70
2022-11-29T15:13:28.177Z,23.38
2022-11-29T15:23:40.625Z,20.75
2022-11-29T15:33:46.050Z,17.02
2022-11-29T15:43:54.518Z,17.33
2022-11-29T15:54:13.230Z,15.25
2022-11-29T16:04:20.404Z,11.98
2022-11-29T16:14:28.469Z,11.05
2022-11-29T16:24:33.990Z,11.63
2022-11-29T16:34:36.175Z,12.65
2022-11-29T16:44:41.591Z,11.40
2022-11-29T16:54:44.139Z,11.40
2022-11-29T17:04:46.967Z,11.30
2022-11-29T17:14:49.409Z,11.68
2022-11-29T17:24:51.960Z,14.85
2022-11-29T17:34:54.435Z,14.45
2022-11-29T17:44:56.611Z,14.68
2022-11-29T17:54:59.104Z,15.50
2022-11-29T18:05:01.338Z,14.70
2022-11-29T18:15:03.679Z,13.63
2022-11-29T18:25:37.078Z,14.30
2022-11-29T18:35:28.507Z,16.88
2022-11-29T18:45:30.706Z,13.98
2022-11-29T18:55:33.317Z,15.32
2022-11-29T19:05:35.482Z,13.18
2022-11-29T19:15:37.679Z,16.67
2022-11-29T19:25:40.053Z,19.27
2022-11-29T19:35:42.220Z,15.15
2022-11-29T19:45:44.526Z,13.70
2022-11-29T19:55:46.797Z,15.13
2022-11-29T20:05:55.843Z,16.52
2022-11-29T20:16:03.477Z,16.55
2022-11-29T20:26:08.213Z,17.97
2022-11-29T20:36:30.415Z,18.95
2022-11-29T20:46:32.810Z,23.92
2022-11-29T20:56:35.009Z,26.90
2022-11-29T21:06:38.167Z,30.10
2022-11-29T21:16:40.632Z,40.65
2022-11-29T21:26:50.928Z,46.35
2022-11-29T21:40:13.079Z,49.75
2022-11-29T21:50:15.415Z,48.67
2022-11-29T22:00:18.103Z,53.25
2022-11-29T22:10:20.272Z,38.95
2022-11-29T22:20:22.675Z,50.35
2022-11-29T22:30:24.884Z,54.03
2022-11-29T22:40:27.044Z,42.65
2022-11-29T22:50:29.223Z,26.20
2022-11-29T23:00:32.216Z,26.92
2022-11-29T23:10:34.444Z,22.25
2022-11-29T23:20:37.592Z,18.00
2022-11-29T23:30:39.737Z,20.88
2022-11-29T23:40:43.812Z,13.73
2022-11-29T23:50:46.695Z,12.93
